Time;durP1;ratioP1;P1;durP2;ratioP2;P2;SDS_P1;SDS_P2;PMS_P1;PMS_P2;Temp;Humidity;BMP_temperature;BMP_pressure;BME280_temperature;BME280_humidity;BME280_pressure;Samples;Min_cycle;Max_cycle;Signal;HPM_P1;HPM_P2
2023/04/08 00:01:00;;;;;;;12.00;7.10;;;7.20;99.90;;;;;;5074950;28;20473;-59
2023/04/08 00:03:29;;;;;;;11.63;8.00;;;7.20;99.90;;;;;;5074766;28;20427;-62
2023/04/08 00:05:56;;;;;;;10.70;6.50;;;7.20;99.90;;;;;;5074307;28;20490;-61
2023/04/08 00:08:23;;;;;;;10.10;6.47;;;7.20;99.90;;;;;;5074694;28;20446;-61
2023/04/08 00:10:54;;;;;;;13.00;6.87;;;7.20;99.90;;;;;;5075085;28;20497;-60
2023/04/08 00:13:21;;;;;;;19.40;7.73;;;7.20;99.90;;;;;;5074707;28;20403;-61
2023/04/08 00:15:51;;;;;;;11.83;7.27;;;7.20;99.90;;;;;;5074794;28;20610;-62
2023/04/08 00:18:18;;;;;;;11.57;6.43;;;7.20;99.90;;;;;;5075189;28;20423;-62
2023/04/08 00:20:47;;;;;;;10.80;6.33;;;7.20;99.90;;;;;;5077190;28;20474;-58
2023/04/08 00:23:14;;;;;;;13.30;7.93;;;7.20;99.90;;;;;;5079981;28;20435;-61
2023/04/08 00:25:41;;;;;;;14.40;7.17;;;7.10;99.90;;;;;;5080403;28;20494;-56
2023/04/08 00:28:08;;;;;;;13.10;7.93;;;7.20;99.90;;;;;;5080480;28;20443;-62
2023/04/08 00:30:36;;;;;;;13.77;7.80;;;7.10;99.90;;;;;;5080344;28;20450;-60
2023/04/08 00:33:03;;;;;;;13.97;8.40;;;7.20;99.90;;;;;;5078685;28;20443;-62
2023/04/08 00:35:30;;;;;;;14.73;7.77;;;7.20;99.90;;;;;;5079031;28;20541;-61
2023/04/08 00:38:02;;;;;;;16.73;8.97;;;7.20;99.90;;;;;;5078808;28;20454;-61
2023/04/08 00:40:30;;;;;;;20.43;10.30;;;7.10;99.90;;;;;;5078749;28;20868;-56
2023/04/08 00:42:59;;;;;;;18.97;8.60;;;7.20;99.90;;;;;;5078338;28;20419;-60
2023/04/08 00:45:26;;;;;;;16.80;9.40;;;7.20;99.90;;;;;;5077796;28;20471;-60
2023/04/08 00:47:56;;;;;;;15.47;8.23;;;7.10;99.90;;;;;;5078713;28;20439;-61
2023/04/08 00:50:23;;;;;;;16.77;8.43;;;7.10;99.90;;;;;;5077762;28;20498;-60
2023/04/08 00:52:50;;;;;;;16.70;9.63;;;7.10;99.90;;;;;;5078581;28;20420;-62
2023/04/08 00:55:18;;;;;;;18.23;10.20;;;7.10;99.90;;;;;;5078440;28;20443;-58
2023/04/08 00:57:45;;;;;;;17.07;9.00;;;7.20;99.90;;;;;;5078061;28;20956;-59
2023/04/08 01:00:13;;;;;;;18.50;10.43;;;7.20;99.90;;;;;;5077789;28;20447;-60
2023/04/08 01:02:47;;;;;;;16.77;10.30;;;7.20;99.90;;;;;;5078553;28;20496;-59
2023/04/08 01:05:19;;;;;;;27.23;10.60;;;7.20;99.90;;;;;;5078394;28;20471;-62
2023/04/08 01:07:48;;;;;;;23.50;10.90;;;7.20;99.90;;;;;;5077874;28;20451;-61
2023/04/08 01:10:20;;;;;;;20.00;11.13;;;7.10;99.90;;;;;;5077792;28;20454;-61
2023/04/08 01:12:51;;;;;;;23.30;11.33;;;7.20;99.90;;;;;;5078123;28;20428;-56
2023/04/08 01:15:19;;;;;;;17.97;9.90;;;7.20;99.90;;;;;;5077961;28;20463;-62
2023/04/08 01:17:47;;;;;;;22.70;10.23;;;7.10;99.90;;;;;;5077755;28;20458;-62
2023/04/08 01:20:15;;;;;;;21.93;11.20;;;7.10;99.90;;;;;;5076979;28;20462;-61
2023/04/08 01:23:02;;;;;;;25.40;10.70;;;7.20;99.90;;;;;;5076931;28;20443;-60
2023/04/08 01:25:33;;;;;;;21.93;10.80;;;7.10;99.90;;;;;;5076686;28;20475;-60
2023/04/08 01:28:05;;;;;;;21.77;10.90;;;7.20;99.90;;;;;;5076670;28;20473;-63
2023/04/08 01:30:35;;;;;;;23.63;10.80;;;7.20;99.90;;;;;;5076741;28;20455;-58
2023/04/08 01:33:03;;;;;;;15.90;9.47;;;7.20;99.90;;;;;;5076562;28;20428;-59
2023/04/08 01:35:31;;;;;;;19.47;10.53;;;7.20;99.90;;;;;;5076243;28;20462;-61
2023/04/08 01:38:02;;;;;;;28.50;10.57;;;7.20;99.90;;;;;;5076165;28;20451;-62
2023/04/08 01:40:29;;;;;;;19.90;10.70;;;7.30;99.90;;;;;;5076206;28;20431;-62
2023/04/08 01:43:00;;;;;;;18.07;9.63;;;7.30;99.90;;;;;;5076837;28;20478;-60
2023/04/08 01:45:33;;;;;;;23.37;12.17;;;7.30;99.90;;;;;;5076361;28;20491;-60
2023/04/08 01:48:01;;;;;;;19.30;10.80;;;7.30;99.90;;;;;;5076816;28;20452;-61
2023/04/08 01:50:30;;;;;;;31.00;13.23;;;7.30;99.90;;;;;;5076594;28;20458;-61
2023/04/08 01:53:02;;;;;;;32.70;10.80;;;7.30;99.90;;;;;;5076311;28;20439;-60
2023/04/08 01:55:29;;;;;;;20.17;12.13;;;7.30;99.90;;;;;;5076225;28;20450;-61
2023/04/08 01:58:01;;;;;;;23.13;12.50;;;7.30;99.90;;;;;;5077061;28;20426;-61
2023/04/08 02:00:30;;;;;;;27.30;12.40;;;7.30;99.90;;;;;;5075957;28;20447;-62
2023/04/08 02:03:02;;;;;;;26.13;13.03;;;7.30;99.90;;;;;;5075992;28;20435;-61
2023/04/08 02:05:31;;;;;;;25.60;12.20;;;7.20;99.90;;;;;;5076411;28;20463;-59
2023/04/08 02:07:58;;;;;;;27.87;11.93;;;7.30;99.90;;;;;;5076258;28;20424;-60
2023/04/08 02:10:25;;;;;;;23.37;11.27;;;7.20;99.90;;;;;;5076272;28;20447;-61
2023/04/08 02:12:56;;;;;;;25.00;11.70;;;7.30;99.90;;;;;;5075313;28;20475;-61
2023/04/08 02:15:24;;;;;;;28.93;12.20;;;7.20;99.90;;;;;;5075801;28;20434;-61
2023/04/08 02:17:56;;;;;;;25.03;11.90;;;7.20;99.90;;;;;;5075569;28;20471;-63
2023/04/08 02:20:28;;;;;;;24.90;10.97;;;7.30;99.90;;;;;;5075403;28;20454;-61
2023/04/08 02:23:03;;;;;;;20.07;10.60;;;7.30;99.90;;;;;;5076290;28;20501;-62
2023/04/08 02:25:33;;;;;;;23.77;11.90;;;7.30;99.90;;;;;;5075612;28;20496;-59
2023/04/08 02:28:02;;;;;;;31.73;15.00;;;7.20;99.90;;;;;;5076149;28;20463;-62
2023/04/08 02:30:31;;;;;;;36.43;15.07;;;7.20;99.90;;;;;;5076373;28;20430;-65
2023/04/08 02:33:07;;;;;;;22.40;12.00;;;7.20;99.90;;;;;;5076178;28;20438;-62
2023/04/08 02:35:35;;;;;;;29.20;13.37;;;7.20;99.90;;;;;;5077231;28;20407;-60
2023/04/08 02:38:02;;;;;;;24.23;13.13;;;7.20;99.90;;;;;;5077253;28;20804;-60
2023/04/08 02:40:31;;;;;;;27.20;12.47;;;7.20;99.90;;;;;;5077271;28;20470;-59
2023/04/08 02:42:59;;;;;;;28.90;12.53;;;7.20;99.90;;;;;;5076192;28;20456;-57
2023/04/08 02:45:30;;;;;;;30.47;13.00;;;7.20;99.90;;;;;;5076908;28;20483;-56
2023/04/08 02:47:59;;;;;;;26.73;11.40;;;7.20;99.90;;;;;;5076928;28;20482;-60
2023/04/08 02:50:28;;;;;;;28.33;12.27;;;7.20;99.90;;;;;;5077324;28;20439;-62
2023/04/08 02:52:55;;;;;;;23.30;12.10;;;7.20;99.90;;;;;;5075203;28;20467;-60
2023/04/08 02:55:24;;;;;;;30.83;12.90;;;7.20;99.90;;;;;;5075436;28;20444;-62
2023/04/08 02:57:51;;;;;;;25.27;12.33;;;7.20;99.90;;;;;;5075357;28;20558;-61
2023/04/08 03:00:18;;;;;;;27.00;11.60;;;7.30;99.90;;;;;;5075265;28;20423;-60
2023/04/08 03:02:47;;;;;;;29.23;12.30;;;7.20;99.90;;;;;;5075492;28;20471;-60
2023/04/08 03:05:15;;;;;;;31.50;14.30;;;7.20;99.90;;;;;;5075587;28;20499;-60
2023/04/08 03:07:43;;;;;;;33.77;13.43;;;7.20;99.90;;;;;;5074835;28;20467;-59
2023/04/08 03:10:10;;;;;;;23.70;12.97;;;7.20;99.90;;;;;;5075119;28;20443;-59
2023/04/08 03:12:37;;;;;;;25.90;13.63;;;7.20;99.90;;;;;;5074820;28;20447;-58
2023/04/08 03:15:08;;;;;;;32.60;12.50;;;7.20;99.90;;;;;;5075536;28;20444;-58
2023/04/08 03:17:35;;;;;;;27.40;12.13;;;7.20;99.90;;;;;;5075038;28;20478;-60
2023/04/08 03:20:03;;;;;;;31.07;14.07;;;7.10;99.90;;;;;;5074944;28;20443;-61
2023/04/08 03:22:30;;;;;;;30.40;13.17;;;7.10;99.90;;;;;;5074532;28;20447;-60
2023/04/08 03:24:58;;;;;;;26.70;13.07;;;7.20;99.90;;;;;;5074475;28;20435;-61
2023/04/08 03:27:25;;;;;;;25.67;11.40;;;7.20;99.90;;;;;;5074555;28;20463;-62
2023/04/08 03:29:52;;;;;;;24.30;12.80;;;7.20;99.90;;;;;;5075232;28;20450;-61
2023/04/08 03:32:19;;;;;;;43.83;14.30;;;7.20;99.90;;;;;;5075017;28;20443;-62
2023/04/08 03:34:48;;;;;;;24.57;13.23;;;7.20;99.90;;;;;;5075568;28;20447;-61
2023/04/08 03:37:15;;;;;;;27.13;13.50;;;7.20;99.90;;;;;;5074733;28;20447;-61
2023/04/08 03:39:42;;;;;;;27.23;12.37;;;7.20;99.90;;;;;;5074918;28;20459;-58
2023/04/08 03:42:11;;;;;;;24.07;12.73;;;7.20;99.90;;;;;;5074464;28;20427;-60
2023/04/08 03:44:38;;;;;;;34.07;14.30;;;7.20;99.90;;;;;;5074307;28;20446;-62
2023/04/08 03:47:07;;;;;;;38.47;15.00;;;7.20;99.90;;;;;;5074532;28;20478;-62
2023/04/08 03:49:38;;;;;;;24.53;12.30;;;7.20;99.90;;;;;;5074716;28;20546;-61
2023/04/08 03:52:05;;;;;;;30.37;13.33;;;7.20;99.90;;;;;;5074997;28;20435;-61
2023/04/08 03:54:32;;;;;;;30.93;14.50;;;7.20;99.90;;;;;;5074426;28;20447;-62
2023/04/08 03:57:01;;;;;;;30.70;13.60;;;7.20;99.90;;;;;;5077793;28;20436;-61
2023/04/08 03:59:29;;;;;;;27.23;12.90;;;7.20;99.90;;;;;;5078166;28;20447;-59
2023/04/08 04:02:02;;;;;;;28.30;13.50;;;7.20;99.90;;;;;;5078257;28;20455;-61
2023/04/08 04:04:29;;;;;;;34.07;14.30;;;7.20;99.90;;;;;;5078129;28;20474;-61
2023/04/08 04:06:56;;;;;;;27.67;12.93;;;7.20;99.90;;;;;;5078151;28;20497;-63
2023/04/08 04:09:23;;;;;;;27.03;12.90;;;7.30;99.90;;;;;;5078393;28;20466;-62
2023/04/08 04:11:52;;;;;;;33.60;15.20;;;7.20;99.90;;;;;;5078437;28;20469;-63
2023/04/08 04:14:23;;;;;;;37.37;15.00;;;7.30;99.90;;;;;;5077587;28;20471;-59
2023/04/08 04:16:53;;;;;;;29.73;14.70;;;7.30;99.90;;;;;;5078351;28;20463;-61
2023/04/08 04:19:20;;;;;;;31.93;13.90;;;7.30;99.90;;;;;;5078329;28;20459;-62
2023/04/08 04:21:47;;;;;;;29.40;13.67;;;7.30;99.90;;;;;;5077606;28;20459;-57
2023/04/08 04:24:14;;;;;;;27.10;13.03;;;7.30;99.90;;;;;;5077438;28;20498;-61
2023/04/08 04:26:41;;;;;;;38.10;14.57;;;7.30;99.90;;;;;;5078581;28;20478;-61
2023/04/08 04:29:10;;;;;;;31.27;14.47;;;7.30;99.90;;;;;;5077256;28;20486;-59
2023/04/08 04:31:37;;;;;;;33.67;15.80;;;7.30;99.90;;;;;;5078498;28;20462;-62
2023/04/08 04:34:09;;;;;;;31.90;13.20;;;7.30;99.90;;;;;;5077563;28;20532;-61
2023/04/08 04:36:38;;;;;;;28.80;12.90;;;7.30;99.90;;;;;;5077803;28;20412;-58
2023/04/08 04:39:07;;;;;;;34.90;15.07;;;7.30;99.90;;;;;;5078288;28;20473;-62
2023/04/08 04:41:39;;;;;;;41.03;15.80;;;7.40;99.90;;;;;;5077543;28;20447;-62
2023/04/08 04:44:08;;;;;;;29.63;13.97;;;7.30;99.90;;;;;;5077142;28;20524;-61
2023/04/08 04:46:35;;;;;;;29.43;14.30;;;7.40;99.90;;;;;;5077212;28;20475;-62
2023/04/08 04:49:09;;;;;;;31.83;15.27;;;7.40;99.90;;;;;;5077275;28;20482;-62
2023/04/08 04:51:37;;;;;;;23.87;14.27;;;7.40;99.90;;;;;;5077498;28;20473;-61
2023/04/08 04:54:04;;;;;;;32.50;16.27;;;7.40;99.90;;;;;;5078228;28;20534;-62
2023/04/08 04:56:31;;;;;;;36.77;14.17;;;7.40;99.90;;;;;;5077153;28;20423;-61
2023/04/08 04:59:01;;;;;;;35.73;15.20;;;7.40;99.90;;;;;;5077292;28;20498;-62
2023/04/08 05:01:28;;;;;;;35.83;15.13;;;7.40;99.90;;;;;;5077474;28;20424;-61
2023/04/08 05:03:57;;;;;;;23.70;12.97;;;7.40;99.90;;;;;;5077410;28;20473;-62
2023/04/08 05:06:25;;;;;;;30.60;14.60;;;7.50;99.90;;;;;;5076842;28;20502;-61
2023/04/08 05:08:53;;;;;;;33.70;16.43;;;7.50;99.90;;;;;;5077158;28;20475;-61
2023/04/08 05:11:20;;;;;;;28.87;15.57;;;7.50;99.90;;;;;;5077029;28;20431;-60
2023/04/08 05:13:47;;;;;;;28.50;14.93;;;7.50;99.90;;;;;;5077186;28;20433;-62
2023/04/08 05:16:15;;;;;;;35.43;13.87;;;7.50;99.90;;;;;;5077352;28;20428;-59
2023/04/08 05:18:45;;;;;;;31.03;15.10;;;7.50;99.90;;;;;;5077051;28;20423;-61
2023/04/08 05:21:12;;;;;;;26.47;15.60;;;7.50;99.90;;;;;;5077458;28;20428;-60
2023/04/08 05:23:38;;;;;;;30.50;15.60;;;7.50;99.90;;;;;;5076988;28;20455;-60
2023/04/08 05:26:17;;;;;;;37.13;16.47;;;7.50;99.90;;;;;;5077724;28;20474;-61
2023/04/08 05:28:44;;;;;;;38.20;16.47;;;7.50;99.90;;;;;;5077481;28;20428;-61
2023/04/08 05:31:11;;;;;;;32.67;16.73;;;7.50;99.90;;;;;;5078181;28;20478;-63
2023/04/08 05:33:41;;;;;;;40.03;15.73;;;7.50;99.90;;;;;;5077650;28;20450;-60
2023/04/08 05:36:08;;;;;;;34.13;15.57;;;7.50;99.90;;;;;;5078387;28;20419;-59
2023/04/08 05:38:38;;;;;;;37.90;17.83;;;7.50;99.90;;;;;;5079089;28;20438;-54
2023/04/08 05:41:05;;;;;;;29.57;16.07;;;7.50;99.90;;;;;;5077800;28;20482;-62
2023/04/08 05:43:35;;;;;;;30.50;17.10;;;7.60;99.90;;;;;;5077480;28;20467;-61
2023/04/08 05:46:06;;;;;;;37.47;17.50;;;7.60;99.90;;;;;;5077261;28;20486;-59
2023/04/08 05:48:33;;;;;;;34.83;15.10;;;7.60;99.90;;;;;;5077699;28;20455;-59
2023/04/08 05:51:00;;;;;;;31.43;15.60;;;7.60;99.90;;;;;;5077553;28;20442;-57
2023/04/08 05:53:27;;;;;;;35.60;15.83;;;7.70;99.90;;;;;;5077559;28;20451;-61
2023/04/08 05:55:54;;;;;;;31.20;16.83;;;7.70;99.90;;;;;;5077519;28;20491;-62
2023/04/08 05:58:24;;;;;;;38.20;17.00;;;7.70;99.90;;;;;;5077386;28;20447;-62
2023/04/08 06:00:54;;;;;;;36.50;17.07;;;7.80;99.90;;;;;;5077419;28;20498;-61
2023/04/08 06:03:23;;;;;;;34.23;17.30;;;7.80;99.90;;;;;;5077328;28;20474;-61
2023/04/08 06:05:53;;;;;;;40.80;21.43;;;7.80;99.90;;;;;;5076859;28;20451;-61
2023/04/08 06:08:20;;;;;;;34.93;16.33;;;7.90;99.90;;;;;;5077373;28;20427;-61
2023/04/08 06:10:49;;;;;;;31.33;15.50;;;7.90;99.90;;;;;;5076935;28;20458;-61
2023/04/08 06:13:16;;;;;;;35.67;17.50;;;7.90;99.90;;;;;;5076941;28;20443;-57
2023/04/08 06:15:48;;;;;;;36.10;16.50;;;8.00;99.90;;;;;;5076466;28;20467;-60
2023/04/08 06:18:16;;;;;;;34.87;16.73;;;8.00;99.90;;;;;;5074748;28;20432;-59
2023/04/08 06:20:43;;;;;;;40.87;17.07;;;8.10;99.90;;;;;;5075418;28;20467;-61
2023/04/08 06:23:10;;;;;;;28.50;14.03;;;8.10;99.90;;;;;;5076449;28;20447;-61
2023/04/08 06:25:40;;;;;;;36.83;16.10;;;8.20;99.90;;;;;;5075721;28;20467;-59
2023/04/08 06:28:07;;;;;;;39.13;15.47;;;8.20;99.90;;;;;;5075813;28;20424;-59
2023/04/08 06:30:35;;;;;;;39.23;16.57;;;8.30;99.90;;;;;;5075980;28;20447;-59
2023/04/08 06:33:02;;;;;;;28.37;15.30;;;8.40;99.90;;;;;;5075821;28;20499;-56
2023/04/08 06:35:32;;;;;;;42.63;18.23;;;8.40;99.90;;;;;;5076488;28;20475;-59
2023/04/08 06:37:59;;;;;;;37.40;16.30;;;8.40;99.90;;;;;;5076028;28;20436;-60
2023/04/08 06:40:28;;;;;;;36.60;17.43;;;8.40;99.90;;;;;;5075297;28;20462;-59
2023/04/08 06:42:55;;;;;;;34.13;16.40;;;8.40;99.90;;;;;;5075624;28;20479;-60
2023/04/08 06:45:22;;;;;;;33.53;15.90;;;8.50;99.90;;;;;;5075737;28;20557;-59
2023/04/08 06:47:49;;;;;;;41.90;17.10;;;8.50;99.90;;;;;;5074993;28;20479;-60
2023/04/08 06:50:16;;;;;;;41.37;18.00;;;8.60;99.90;;;;;;5074851;28;20463;-62
2023/04/08 06:52:44;;;;;;;35.70;17.13;;;8.60;99.90;;;;;;5075244;28;20462;-62
2023/04/08 06:55:11;;;;;;;32.00;16.80;;;8.60;99.90;;;;;;5075180;28;20515;-60
2023/04/08 06:57:38;;;;;;;34.83;13.70;;;8.60;99.90;;;;;;5075361;28;20431;-63
2023/04/08 07:00:07;;;;;;;45.87;17.07;;;8.60;99.90;;;;;;5075386;28;20438;-63
2023/04/08 07:02:34;;;;;;;34.73;16.37;;;8.60;99.90;;;;;;5075072;28;20451;-62
2023/04/08 07:05:06;;;;;;;42.73;15.87;;;8.60;99.90;;;;;;5075294;28;20453;-57
2023/04/08 07:07:34;;;;;;;35.87;15.80;;;8.70;99.90;;;;;;5076045;28;20461;-59
2023/04/08 07:10:03;;;;;;;35.80;16.90;;;8.80;99.90;;;;;;5076515;28;20465;-61
2023/04/08 07:12:29;;;;;;;35.50;17.53;;;8.90;99.90;;;;;;5077435;28;20427;-61
2023/04/08 07:14:56;;;;;;;35.67;15.10;;;9.00;99.90;;;;;;5077676;28;20491;-60
2023/04/08 07:17:23;;;;;;;34.83;15.90;;;9.10;99.90;;;;;;5076865;28;20427;-60
2023/04/08 07:19:51;;;;;;;27.83;15.17;;;9.20;99.90;;;;;;5077174;28;20450;-59
2023/04/08 07:22:21;;;;;;;32.90;15.57;;;9.20;99.90;;;;;;5077689;28;20551;-60
2023/04/08 07:24:48;;;;;;;29.77;15.23;;;9.20;99.90;;;;;;5077225;28;20427;-60
2023/04/08 07:27:17;;;;;;;35.67;14.53;;;9.30;99.90;;;;;;5076933;28;20551;-61
2023/04/08 07:29:44;;;;;;;32.13;14.57;;;9.50;99.90;;;;;;5074340;28;20439;-61
2023/04/08 07:32:13;;;;;;;33.43;15.60;;;9.60;99.90;;;;;;5074327;28;20986;-60
2023/04/08 07:34:40;;;;;;;32.17;14.70;;;9.60;99.90;;;;;;5074447;28;20447;-58
2023/04/08 07:37:07;;;;;;;37.20;15.10;;;9.60;99.90;;;;;;5074440;28;20530;-61
2023/04/08 07:39:34;;;;;;;37.80;16.30;;;9.60;99.90;;;;;;5074389;28;20423;-61
2023/04/08 07:42:03;;;;;;;27.40;13.43;;;9.50;99.90;;;;;;5073869;28;20506;-60
2023/04/08 07:44:37;;;;;;;30.53;16.30;;;9.50;99.90;;;;;;5074942;28;20447;-60
2023/04/08 07:47:04;;;;;;;36.60;16.93;;;9.50;99.90;;;;;;5073692;28;20483;-59
2023/04/08 07:49:32;;;;;;;31.70;15.60;;;9.60;99.90;;;;;;5074236;28;20427;-59
2023/04/08 07:51:59;;;;;;;27.70;15.60;;;9.60;99.90;;;;;;5074643;28;20455;-61
2023/04/08 07:54:26;;;;;;;31.17;15.80;;;9.70;99.90;;;;;;5074509;28;20431;-60
2023/04/08 07:57:02;;;;;;;31.80;15.40;;;9.70;99.90;;;;;;5074529;28;20466;-60
2023/04/08 07:59:32;;;;;;;36.50;16.10;;;9.80;99.90;;;;;;5074590;28;20455;-60
2023/04/08 08:01:59;;;;;;;30.53;14.70;;;9.80;99.90;;;;;;5074349;28;20464;-60
2023/04/08 08:04:26;;;;;;;32.40;16.60;;;9.80;99.90;;;;;;5073777;28;20443;-60
2023/04/08 08:06:52;;;;;;;37.33;16.43;;;9.80;99.90;;;;;;5073871;28;20562;-59
2023/04/08 08:09:19;;;;;;;32.47;15.37;;;9.90;99.90;;;;;;5074181;28;20443;-60
2023/04/08 08:11:46;;;;;;;29.10;14.70;;;10.00;99.90;;;;;;5074469;28;20977;-60
2023/04/08 08:14:15;;;;;;;24.93;13.10;;;10.10;99.90;;;;;;5075031;28;20459;-60
2023/04/08 08:16:43;;;;;;;32.53;14.30;;;10.10;99.90;;;;;;5074622;28;20515;-60
2023/04/08 08:19:11;;;;;;;26.10;14.87;;;10.10;99.90;;;;;;5075235;28;20446;-58
2023/04/08 08:21:38;;;;;;;31.23;14.23;;;10.10;99.90;;;;;;5074628;28;20471;-62
2023/04/08 08:24:05;;;;;;;30.83;15.57;;;10.20;99.90;;;;;;5074528;28;20450;-60
2023/04/08 08:26:35;;;;;;;29.53;16.37;;;10.20;99.90;;;;;;5074948;28;20458;-60
2023/04/08 08:29:02;;;;;;;27.47;14.87;;;10.30;99.90;;;;;;5075130;28;20915;-60
2023/04/08 08:31:31;;;;;;;31.43;15.07;;;10.20;99.90;;;;;;5074887;28;20439;-61
2023/04/08 08:34:00;;;;;;;28.80;15.67;;;10.20;99.90;;;;;;5075269;28;20427;-61
2023/04/08 08:36:30;;;;;;;33.20;15.20;;;10.30;99.90;;;;;;5075737;28;20470;-59
2023/04/08 08:38:57;;;;;;;29.67;14.03;;;10.30;99.90;;;;;;5074669;28;20467;-60
2023/04/08 08:41:25;;;;;;;26.67;14.60;;;10.30;99.90;;;;;;5075404;28;20430;-61
2023/04/08 08:43:53;;;;;;;34.20;14.93;;;10.40;99.90;;;;;;5078169;28;20457;-60
2023/04/08 08:46:20;;;;;;;31.17;12.83;;;10.40;99.90;;;;;;5076999;28;20435;-61
2023/04/08 08:48:47;;;;;;;28.03;14.47;;;10.30;99.90;;;;;;5077197;28;20446;-60
2023/04/08 08:51:18;;;;;;;30.83;15.03;;;10.40;99.90;;;;;;5077439;28;20435;-61
2023/04/08 08:53:47;;;;;;;34.17;17.77;;;10.40;99.90;;;;;;5077685;28;20470;-59
2023/04/08 08:56:14;;;;;;;34.07;14.37;;;10.50;99.90;;;;;;5076867;28;20454;-61
2023/04/08 08:58:42;;;;;;;32.67;13.40;;;10.60;99.90;;;;;;5076762;28;20505;-62
2023/04/08 09:01:31;;;;;;;24.33;13.70;;;10.80;99.90;;;;;;5077205;28;20439;-61
2023/04/08 09:04:09;;;;;;;22.63;12.60;;;11.00;99.90;;;;;;5073249;28;20438;-62
2023/04/08 09:06:40;;;;;;;30.07;14.83;;;11.20;99.90;;;;;;5076520;28;20450;-62
2023/04/08 09:09:11;;;;;;;24.30;14.20;;;11.20;99.90;;;;;;5076922;28;20439;-62
2023/04/08 09:11:39;;;;;;;27.93;15.10;;;11.20;99.90;;;;;;5076672;28;20427;-61
2023/04/08 09:14:17;;;;;;;26.13;13.97;;;11.10;99.90;;;;;;5077436;28;20443;-62
2023/04/08 09:16:46;;;;;;;27.27;15.43;;;10.90;99.90;;;;;;5076778;28;20415;-62
2023/04/08 09:19:12;;;;;;;27.27;14.40;;;10.80;99.90;;;;;;5077198;28;20447;-60
2023/04/08 09:21:43;;;;;;;32.17;14.87;;;10.70;99.90;;;;;;5076538;28;20439;-62
2023/04/08 09:24:28;;;;;;;25.43;13.13;;;10.70;99.90;;;;;;5076436;28;20466;-63
2023/04/08 09:26:56;;;;;;;25.93;12.93;;;10.60;99.90;;;;;;5076649;28;20479;-60
2023/04/08 09:29:33;;;;;;;27.43;15.07;;;10.60;99.90;;;;;;5076375;28;20463;-62
2023/04/08 09:32:02;;;;;;;24.00;13.67;;;10.60;99.90;;;;;;5076209;28;20526;-62
2023/04/08 09:34:35;;;;;;;23.70;11.57;;;10.50;99.90;;;;;;5076477;28;20443;-62
2023/04/08 09:37:03;;;;;;;38.13;16.10;;;10.50;99.90;;;;;;5076134;28;20474;-62
2023/04/08 09:39:33;;;;;;;29.13;13.10;;;10.40;99.90;;;;;;5076559;28;20518;-62
2023/04/08 09:42:02;;;;;;;26.93;15.10;;;10.40;99.90;;;;;;5077046;28;20435;-61
2023/04/08 09:44:32;;;;;;;24.20;13.00;;;10.40;99.90;;;;;;5076047;28;20569;-62
2023/04/08 09:47:08;;;;;;;29.57;15.00;;;10.40;99.90;;;;;;5075696;28;20471;-61
2023/04/08 09:49:42;;;;;;;30.90;15.43;;;10.40;99.90;;;;;;5076424;28;20447;-62
2023/04/08 09:52:13;;;;;;;33.07;14.67;;;10.30;99.90;;;;;;5075836;28;20452;-61
2023/04/08 09:54:52;;;;;;;30.40;15.27;;;10.30;99.90;;;;;;5075310;28;20451;-60
2023/04/08 09:57:35;;;;;;;24.47;13.37;;;10.30;99.90;;;;;;5076410;28;20428;-62
2023/04/08 10:00:09;;;;;;;24.20;13.70;;;10.50;99.90;;;;;;5075727;28;20908;-62
2023/04/08 10:02:45;;;;;;;25.23;13.33;;;10.70;99.90;;;;;;5075785;28;20467;-60
2023/04/08 10:05:14;;;;;;;29.17;14.27;;;11.10;99.90;;;;;;5075493;28;20431;-62
2023/04/08 10:07:43;;;;;;;24.00;12.20;;;11.70;99.90;;;;;;5075935;28;20475;-61
2023/04/08 10:10:10;;;;;;;29.77;12.83;;;12.40;99.90;;;;;;5076146;28;20447;-60
2023/04/08 10:12:40;;;;;;;26.10;13.13;;;12.80;99.90;;;;;;5076295;28;20428;-60
2023/04/08 10:15:27;;;;;;;20.83;11.87;;;12.90;99.90;;;;;;5076089;28;20447;-61
2023/04/08 10:17:54;;;;;;;28.63;13.67;;;12.70;99.90;;;;;;5075589;28;20920;-59
2023/04/08 10:20:44;;;;;;;24.07;15.70;;;12.60;99.90;;;;;;5075968;28;20464;-62
2023/04/08 10:23:14;;;;;;;24.27;13.47;;;12.60;99.90;;;;;;5075082;28;20419;-62
2023/04/08 10:25:41;;;;;;;24.10;13.27;;;12.70;99.90;;;;;;5076360;28;20439;-60
2023/04/08 10:28:29;;;;;;;26.67;13.97;;;12.80;99.90;;;;;;5075133;28;20494;-61
2023/04/08 10:30:57;;;;;;;24.60;13.73;;;12.70;99.90;;;;;;5070177;28;20462;-63
2023/04/08 10:33:31;;;;;;;29.30;13.00;;;12.70;99.90;;;;;;5075209;28;20446;-61
2023/04/08 10:36:01;;;;;;;22.60;12.67;;;12.70;99.90;;;;;;5075099;28;20430;-61
2023/04/08 10:38:30;;;;;;;26.33;12.63;;;12.70;99.90;;;;;;5075559;28;20441;-61
2023/04/08 10:40:58;;;;;;;23.07;12.20;;;13.00;99.90;;;;;;5075424;28;20801;-62
2023/04/08 10:43:25;;;;;;;19.27;11.87;;;13.10;99.90;;;;;;5075850;28;20432;-61
2023/04/08 10:45:53;;;;;;;22.27;12.43;;;13.20;99.90;;;;;;5075197;28;20431;-61
2023/04/08 10:48:23;;;;;;;24.97;14.20;;;13.20;99.90;;;;;;5074965;28;20507;-62
2023/04/08 10:50:54;;;;;;;27.60;13.60;;;13.00;99.90;;;;;;5075506;28;20471;-61
2023/04/08 10:53:29;;;;;;;22.63;12.23;;;12.90;99.90;;;;;;5075666;28;20431;-61
2023/04/08 10:56:06;;;;;;;22.50;12.57;;;12.80;99.90;;;;;;5075771;28;20453;-61
2023/04/08 10:58:33;;;;;;;25.60;13.37;;;12.60;99.90;;;;;;5075555;28;20482;-60
2023/04/08 11:01:05;;;;;;;24.10;13.87;;;12.50;99.90;;;;;;5074913;28;20436;-60
2023/04/08 11:03:33;;;;;;;23.83;13.47;;;12.50;99.90;;;;;;5075179;28;20423;-62
2023/04/08 11:06:00;;;;;;;22.20;12.27;;;12.50;99.90;;;;;;5073830;28;20462;-63
2023/04/08 11:08:29;;;;;;;20.90;12.63;;;12.40;99.90;;;;;;5075255;28;20474;-61
2023/04/08 11:11:00;;;;;;;19.17;11.20;;;12.40;99.90;;;;;;5074738;28;20435;-61
2023/04/08 11:13:30;;;;;;;20.07;12.23;;;12.50;99.90;;;;;;5074240;28;20427;-61
2023/04/08 11:15:59;;;;;;;23.53;13.33;;;12.70;99.90;;;;;;5074590;28;20462;-61
2023/04/08 11:18:27;;;;;;;18.23;11.20;;;13.00;99.90;;;;;;5074612;28;20443;-59
2023/04/08 11:20:55;;;;;;;24.23;12.10;;;13.10;99.90;;;;;;5074400;28;20820;-61
2023/04/08 11:23:22;;;;;;;24.27;14.17;;;13.10;99.90;;;;;;5075102;28;20473;-59
2023/04/08 11:25:51;;;;;;;17.53;10.80;;;13.10;99.90;;;;;;5075203;28;20440;-60
2023/04/08 11:28:20;;;;;;;20.17;10.73;;;13.00;99.90;;;;;;5074334;28;20499;-61
2023/04/08 11:30:49;;;;;;;22.37;12.90;;;12.90;99.90;;;;;;5072518;28;20486;-61
2023/04/08 11:33:16;;;;;;;22.73;12.63;;;12.80;99.90;;;;;;5074480;28;20423;-60
2023/04/08 11:35:50;;;;;;;18.40;11.20;;;12.80;99.90;;;;;;5074730;28;20467;-61
2023/04/08 11:38:21;;;;;;;25.20;12.13;;;12.80;99.90;;;;;;5074008;28;20717;-61
2023/04/08 11:40:54;;;;;;;21.47;11.73;;;12.70;99.90;;;;;;5074175;28;20427;-61
2023/04/08 11:43:22;;;;;;;19.80;11.37;;;12.80;99.90;;;;;;5074051;28;20450;-62
2023/04/08 11:45:54;;;;;;;21.00;11.57;;;12.80;99.90;;;;;;5074611;28;20554;-62
2023/04/08 11:48:22;;;;;;;18.20;9.57;;;13.00;99.90;;;;;;5074832;28;20470;-63
2023/04/08 11:51:03;;;;;;;18.97;10.37;;;13.00;99.90;;;;;;5074720;28;20497;-60
2023/04/08 11:53:32;;;;;;;18.93;12.03;;;13.00;99.90;;;;;;5076358;28;20418;-63
2023/04/08 11:56:16;;;;;;;17.30;9.83;;;13.10;99.90;;;;;;5076483;28;20470;-59
2023/04/08 11:58:43;;;;;;;17.47;10.53;;;13.30;99.90;;;;;;5076080;28;20411;-60
2023/04/08 12:01:11;;;;;;;19.30;11.10;;;13.40;99.90;;;;;;5074636;28;20462;-61
2023/04/08 12:03:38;;;;;;;13.50;8.40;;;13.40;99.90;;;;;;5077021;28;20448;-57
2023/04/08 12:06:07;;;;;;;14.60;9.97;;;13.50;99.90;;;;;;5076389;28;20467;-61
2023/04/08 12:08:34;;;;;;;12.43;8.70;;;13.70;99.90;;;;;;5074834;28;20485;-59
2023/04/08 12:11:01;;;;;;;14.70;8.60;;;13.90;99.90;;;;;;5072116;28;20474;-63
2023/04/08 12:13:28;;;;;;;13.77;8.83;;;13.90;99.90;;;;;;5074598;28;20447;-63
2023/04/08 12:15:55;;;;;;;12.20;8.13;;;14.10;99.90;;;;;;5074448;28;20558;-60
2023/04/08 12:18:23;;;;;;;11.03;7.87;;;14.30;99.90;;;;;;5078159;28;20439;-62
2023/04/08 12:20:50;;;;;;;12.40;7.90;;;14.40;99.90;;;;;;5078382;28;20497;-61
2023/04/08 12:23:17;;;;;;;9.50;7.20;;;14.60;99.90;;;;;;5077894;28;20462;-61
2023/04/08 12:25:43;;;;;;;13.23;8.13;;;14.70;99.90;;;;;;5077821;28;20454;-60
2023/04/08 12:28:11;;;;;;;10.67;7.63;;;14.90;99.90;;;;;;5077721;28;20463;-61
2023/04/08 12:30:37;;;;;;;11.83;8.00;;;14.70;99.90;;;;;;5077004;28;20479;-63
2023/04/08 12:33:06;;;;;;;11.33;7.30;;;14.70;99.90;;;;;;5078113;28;20443;-61
2023/04/08 12:35:40;;;;;;;15.40;7.93;;;14.70;99.90;;;;;;5078395;28;20494;-61
2023/04/08 12:38:07;;;;;;;13.90;7.10;;;14.90;99.90;;;;;;5077486;28;20455;-61
2023/04/08 12:40:33;;;;;;;9.23;7.27;;;15.00;99.90;;;;;;5076372;28;20475;-62
2023/04/08 12:43:00;;;;;;;11.07;7.83;;;15.10;99.90;;;;;;5077964;28;20443;-62
2023/04/08 12:45:29;;;;;;;11.00;7.37;;;15.20;99.90;;;;;;5077886;28;20463;-61